Time;durP1;ratioP1;P1;durP2;ratioP2;P2;SDS_P1;SDS_P2;PMS_P1;PMS_P2;Temp;Humidity;BMP_temperature;BMP_pressure;BME280_temperature;BME280_humidity;BME280_pressure;Samples;Min_cycle;Max_cycle;Signal;HPM_P1;HPM_P2
2023/10/21 00:00:01;;;;;;;1.53;1.37;;;12.50;95.80;;;11.96;99.75;95490.63;5007012;28;20483;-78
2023/10/21 00:02:28;;;;;;;1.50;1.40;;;12.50;95.70;;;11.84;100.00;95480.97;4988841;28;20460;-80
2023/10/21 00:04:57;;;;;;;1.83;1.43;;;12.40;95.90;;;11.88;100.00;95492.03;5007136;28;21264;-78
2023/10/21 00:07:24;;;;;;;3.60;1.90;;;12.40;95.70;;;11.88;100.00;95490.13;5003898;28;20975;-77
2023/10/21 00:09:52;;;;;;;2.33;1.63;;;12.40;96.10;;;11.79;100.00;95499.97;5002884;28;20783;-78
2023/10/21 00:12:20;;;;;;;2.70;1.40;;;12.30;95.90;;;11.75;100.00;95496.22;4983723;28;20895;-76
2023/10/21 00:14:47;;;;;;;1.93;1.73;;;12.30;96.40;;;11.80;100.00;95498.06;5004681;28;20452;-79
2023/10/21 00:17:15;;;;;;;2.10;1.67;;;12.30;96.90;;;11.29;100.00;95422.53;5003597;28;20467;-78
2023/10/21 00:19:42;;;;;;;4.23;2.07;;;12.20;97.10;;;11.89;100.00;95507.97;5000633;28;20448;-78
2023/10/21 00:22:10;;;;;;;1.50;1.40;;;12.30;96.90;;;11.91;100.00;95502.28;5003488;28;20461;-78
2023/10/21 00:24:38;;;;;;;2.87;1.70;;;12.30;96.50;;;11.83;100.00;95509.13;5001109;28;20906;-78
2023/10/21 00:27:05;;;;;;;1.93;1.83;;;12.30;96.40;;;11.37;100.00;95447.34;5004957;28;20469;-78
2023/10/21 00:29:54;;;;;;;1.33;1.20;;;12.30;96.40;;;11.65;100.00;95507.94;5005378;28;20468;-78
2023/10/21 00:32:32;;;;;;;1.57;1.47;;;12.30;96.10;;;11.61;100.00;95496.88;4995470;28;20970;-79
2023/10/21 00:35:28;;;;;;;1.53;1.40;;;12.20;96.40;;;11.70;100.00;95518.72;5003286;28;20598;-79
2023/10/21 00:38:27;;;;;;;1.80;1.67;;;12.30;96.30;;;11.75;100.00;95520.56;4987311;28;21194;-78
2023/10/21 00:41:31;;;;;;;1.97;1.77;;;12.30;96.00;;;11.75;99.95;95517.84;4947465;28;20466;-79
2023/10/21 00:44:13;;;;;;;2.10;1.63;;;12.30;95.90;;;11.73;99.47;95530.84;4946556;28;20470;-78
2023/10/21 00:53:04;;;;;;;2.27;1.30;;;12.10;96.20;;;11.54;100.00;95528.84;5013288;28;20455;-79
2023/10/21 00:56:38;;;;;;;4.90;1.67;;;12.10;96.40;;;11.55;100.00;95541.28;4997190;28;20467;-77
2023/10/21 01:00:32;;;;;;;1.43;1.33;;;12.10;96.00;;;11.56;100.00;95545.59;4908359;29;20446;-78
2023/10/21 01:04:19;;;;;;;1.57;1.47;;;12.10;96.00;;;11.46;100.00;95538.38;4840133;29;20468;-79
2023/10/21 01:08:09;;;;;;;1.63;1.50;;;12.00;96.30;;;11.41;100.00;95540.28;4858874;29;20471;-78
2023/10/21 01:11:23;;;;;;;1.30;1.20;;;12.00;96.30;;;11.46;100.00;95557.28;4797121;29;20458;-77
2023/10/21 01:14:27;;;;;;;1.60;1.50;;;12.00;95.90;;;11.43;100.00;95554.34;4800030;29;20991;-76
2023/10/21 01:24:34;;;;;;;1.47;1.37;;;11.90;96.50;;;10.96;100.00;95508.69;4918724;29;20473;-75
2023/10/21 01:27:56;;;;;;;;;;;;;;;;;;;;;
2023/10/21 01:30:51;;;;;;;1.50;1.30;;;11.90;96.20;;;10.91;100.00;95522.25;4901883;29;20457;-77
2023/10/21 01:33:24;;;;;;;1.23;1.13;;;11.90;96.00;;;11.31;100.00;95579.03;4915677;29;20566;-77
2023/10/21 01:36:01;;;;;;;2.53;1.20;;;11.90;96.20;;;11.50;99.75;95590.00;4922890;29;20530;-76
2023/10/21 01:39:14;;;;;;;1.10;1.00;;;12.00;95.90;;;11.45;99.62;95598.16;4925842;29;20803;-77
2023/10/21 01:42:24;;;;;;;1.73;1.63;;;12.00;95.90;;;11.46;99.43;95586.25;4925027;29;20988;-77
2023/10/21 01:44:58;;;;;;;1.70;1.27;;;12.00;95.40;;;11.48;98.45;95606.47;4917020;29;20473;-79
2023/10/21 01:47:53;;;;;;;1.20;1.10;;;11.90;95.30;;;11.30;99.93;95599.03;4962708;28;20505;-79
2023/10/21 01:51:32;;;;;;;1.10;1.10;;;11.80;96.10;;;11.25;100.00;95609.88;5003365;28;20463;-78
2023/10/21 01:54:08;;;;;;;1.50;1.40;;;11.80;96.30;;;11.17;100.00;95606.66;5006124;28;20475;-76
2023/10/21 02:14:30;;;;;;;1.67;1.40;;;11.50;97.50;;;10.96;100.00;95622.16;4937432;28;20454;-77
2023/10/21 02:17:08;;;;;;;2.30;1.33;;;11.50;97.70;;;10.95;100.00;95625.16;4929065;29;20947;-78
2023/10/21 02:22:19;;;;;;;1.03;0.97;;;11.40;98.00;;;11.05;100.00;95652.13;4867644;29;20489;-79
2023/10/21 02:25:13;;;;;;;1.37;1.00;;;11.40;98.30;;;11.01;100.00;95638.38;4907370;29;20956;-80
2023/10/21 02:27:50;;;;;;;1.00;0.90;;;11.40;98.30;;;10.97;100.00;95650.78;4939909;28;20529;-79
2023/10/21 02:33:03;;;;;;;1.30;1.20;;;11.50;98.40;;;11.22;100.00;95668.00;4929350;28;20658;-79
2023/10/21 02:36:42;;;;;;;;;;;;;;;;;;;;;
2023/10/21 02:39:17;;;;;;;1.10;1.00;;;11.70;96.30;;;11.36;98.89;95670.91;4943528;28;20501;-78
2023/10/21 02:42:45;;;;;;;;;;;;;;;;;;;;;
2023/10/21 02:45:15;;;;;;;1.43;1.20;;;11.80;95.70;;;11.45;97.98;95681.97;4899904;28;20476;-78
2023/10/21 02:47:49;;;;;;;0.77;0.77;;;12.00;94.80;;;11.58;96.90;95691.34;4948193;28;20450;-77
2023/10/21 02:50:45;;;;;;;1.03;0.90;;;12.00;94.40;;;11.70;95.24;95689.13;4945050;28;20994;-78
2023/10/21 02:53:13;;;;;;;1.87;0.90;;;12.20;93.20;;;11.81;94.01;95687.16;4918504;29;20558;-78
2023/10/21 02:56:23;;;;;;;1.20;1.10;;;12.30;92.70;;;12.05;92.47;95697.28;4942758;29;20466;-77
2023/10/21 02:58:58;;;;;;;1.47;1.07;;;12.40;92.20;;;12.16;91.18;95700.75;4867483;29;20499;-78
2023/10/21 03:01:50;;;;;;;;;;;;;;;;;;;;;
2023/10/21 03:04:18;;;;;;;1.13;0.70;;;12.70;90.60;;;12.33;88.10;95701.16;4853090;29;22099;-78
2023/10/21 03:06:45;;;;;;;0.80;0.70;;;12.80;90.30;;;12.43;87.19;95697.56;4867126;29;20482;-78
2023/10/21 03:09:16;;;;;;;0.80;0.80;;;12.90;90.20;;;12.42;86.43;95704.06;4876440;29;20468;-77
2023/10/21 03:11:49;;;;;;;3.07;0.67;;;13.00;89.80;;;12.52;85.90;95702.38;4941465;29;20459;-77
2023/10/21 03:14:21;;;;;;;1.00;0.53;;;13.10;89.50;;;12.60;85.32;95713.38;4927586;29;20462;-77
2023/10/21 03:17:12;;;;;;;0.70;0.60;;;13.10;89.10;;;12.65;85.48;95726.06;4939976;28;20875;-77
2023/10/21 03:20:19;;;;;;;0.77;0.77;;;13.10;88.90;;;12.56;84.81;95733.19;4940886;28;20484;-78
2023/10/21 03:23:23;;;;;;;1.07;0.87;;;13.10;88.70;;;12.49;85.56;95740.81;4900289;29;21004;-78
2023/10/21 03:27:13;;;;;;;;;;;;;;;;;;;;;
2023/10/21 03:33:22;;;;;;;1.33;0.50;;;12.90;89.10;;;12.47;85.47;95754.66;4766751;30;20466;-78
2023/10/21 03:42:41;;;;;;;0.87;0.60;;;12.80;89.20;;;12.50;85.72;95755.97;4789753;29;20935;-78
2023/10/21 03:48:36;;;;;;;0.93;0.83;;;13.00;88.80;;;12.45;84.67;95746.81;4795066;29;20465;-77
2023/10/21 03:59:10;;;;;;;1.60;1.00;;;12.90;88.60;;;12.37;85.33;95771.81;4753697;30;20457;-78
2023/10/21 04:02:41;;;;;;;0.70;0.70;;;12.90;88.30;;;12.35;85.08;95779.38;4759077;30;20507;-78
2023/10/21 04:05:35;;;;;;;1.80;0.80;;;12.90;88.20;;;12.30;85.30;95787.53;4762377;29;20930;-77
2023/10/21 04:08:23;;;;;;;0.80;0.80;;;12.80;88.30;;;11.87;85.43;95734.72;4836639;29;20465;-78
2023/10/21 04:17:56;;;;;;;0.63;0.63;;;12.60;89.00;;;12.09;86.33;95798.50;4837223;29;20465;-78
2023/10/21 04:20:26;;;;;;;0.93;0.60;;;12.50;88.90;;;12.03;86.77;95816.66;4987399;28;20490;-78
2023/10/21 04:23:15;;;;;;;1.47;1.37;;;12.40;89.30;;;11.98;87.15;95808.56;4990800;28;20488;-78
2023/10/21 04:26:15;;;;;;;1.20;1.00;;;12.40;89.50;;;12.03;86.69;95826.66;5007656;28;20948;-77
2023/10/21 04:28:49;;;;;;;1.43;1.13;;;12.40;89.40;;;12.08;86.40;95829.38;5008792;28;20466;-78
2023/10/21 04:31:59;;;;;;;1.17;1.00;;;12.50;89.00;;;12.26;85.26;95829.81;5006531;28;21348;-78
2023/10/21 04:34:46;;;;;;;0.90;0.90;;;12.70;88.50;;;12.28;84.29;95824.91;4993907;28;20798;-78
2023/10/21 04:37:14;;;;;;;0.70;0.60;;;12.70;88.20;;;12.35;83.85;95828.13;5009184;28;20469;-78
2023/10/21 04:40:03;;;;;;;1.00;0.60;;;12.70;88.00;;;12.07;83.88;95789.88;5007138;28;20459;-81
2023/10/21 04:42:40;;;;;;;0.70;0.70;;;12.80;87.90;;;12.50;82.79;95834.53;5000292;28;20566;-78
2023/10/21 04:45:50;;;;;;;1.30;0.73;;;12.90;87.50;;;12.48;82.86;95837.53;5008429;28;20555;-78
2023/10/21 04:48:40;;;;;;;0.90;0.90;;;12.90;87.50;;;12.49;82.79;95849.97;4957030;28;20480;-78
2023/10/21 04:51:19;;;;;;;2.17;0.90;;;12.90;87.50;;;12.46;83.14;95853.25;4999525;28;20458;-78
2023/10/21 04:53:53;;;;;;;0.70;0.50;;;12.90;87.40;;;12.46;82.87;95855.97;4990573;28;20483;-78
2023/10/21 04:56:45;;;;;;;2.90;0.70;;;12.90;87.30;;;12.42;83.02;95858.41;5005139;28;20565;-77
2023/10/21 04:59:20;;;;;;;2.63;0.90;;;12.90;87.20;;;12.43;82.60;95867.34;5007097;28;20463;-78
2023/10/21 05:01:47;;;;;;;2.80;0.60;;;12.90;87.20;;;12.49;82.36;95876.25;4999724;28;20471;-78
2023/10/21 05:04:42;;;;;;;1.00;0.77;;;12.90;87.20;;;12.51;82.40;95874.88;5009157;28;20551;-79
2023/10/21 05:10:23;;;;;;;0.70;0.60;;;13.00;86.90;;;12.60;82.08;95883.22;5001449;28;21057;-78
2023/10/21 05:15:38;;;;;;;0.60;0.50;;;12.90;87.20;;;12.63;82.67;95898.09;4981474;28;20529;-79
2023/10/21 05:20:59;;;;;;;1.00;0.70;;;13.00;87.00;;;12.73;81.29;95915.09;4973905;28;20455;-79
2023/10/21 05:26:44;;;;;;;1.07;0.70;;;13.00;87.10;;;12.74;81.69;95932.97;4995864;28;20695;-80
2023/10/21 05:29:23;;;;;;;2.00;0.90;;;13.20;86.70;;;12.70;81.38;95937.34;5002541;28;20444;-79
2023/10/21 05:32:01;;;;;;;0.80;0.57;;;13.20;86.70;;;12.73;81.21;95949.50;4996046;28;20471;-79
2023/10/21 05:35:00;;;;;;;;;;;;;;;;;;;;;
2023/10/21 05:37:33;;;;;;;3.10;0.70;;;13.10;86.80;;;12.74;81.02;95960.06;4984874;28;21001;-79
2023/10/21 05:40:12;;;;;;;0.97;0.50;;;13.20;86.50;;;12.78;81.29;95971.16;5005357;28;20461;-78
2023/10/21 05:43:03;;;;;;;0.80;0.80;;;13.20;86.50;;;12.74;81.36;95979.03;5003305;28;20480;-79
2023/10/21 05:48:48;;;;;;;1.53;0.70;;;13.20;86.40;;;12.68;81.44;95982.88;4982810;28;20479;-76
2023/10/21 05:54:26;;;;;;;1.27;0.77;;;13.10;86.40;;;12.73;81.20;95990.13;4961531;28;20971;-76
2023/10/21 05:57:51;;;;;;;1.10;0.87;;;13.10;86.40;;;12.70;81.75;96006.97;4997473;28;20458;-75
2023/10/21 06:00:38;;;;;;;1.93;1.10;;;13.10;86.50;;;12.67;81.81;96002.94;4949710;28;20465;-75
2023/10/21 06:03:27;;;;;;;2.00;0.80;;;13.10;86.70;;;12.74;81.44;96016.97;4987315;28;20471;-77
2023/10/21 06:08:54;;;;;;;0.80;0.70;;;13.20;86.30;;;12.73;80.82;96045.16;5293317;23;21054;-75
2023/10/21 06:11:21;;;;;;;1.10;0.90;;;13.30;86.00;;;12.82;80.57;96050.00;4965791;28;20470;-76
2023/10/21 06:13:50;;;;;;;1.10;1.00;;;13.30;86.10;;;12.89;80.53;96059.47;4963626;28;20622;-76
2023/10/21 06:16:17;;;;;;;2.00;0.90;;;13.30;86.20;;;12.83;81.43;96057.06;4975577;28;20505;-74
2023/10/21 06:18:45;;;;;;;0.87;0.80;;;13.20;86.50;;;12.78;81.93;96067.88;4969155;28;20454;-75
2023/10/21 06:21:13;;;;;;;0.80;0.70;;;13.10;86.80;;;12.68;81.50;96068.75;4960736;28;20457;-74
2023/10/21 06:23:41;;;;;;;0.80;0.67;;;13.10;86.50;;;12.69;81.79;96076.59;4940356;28;20479;-75
2023/10/21 06:26:12;;;;;;;1.07;0.80;;;13.00;86.70;;;12.68;81.81;96066.88;4945554;28;20551;-74
2023/10/21 06:28:39;;;;;;;1.23;1.10;;;13.00;86.80;;;12.65;82.20;96075.53;4944844;28;20942;-75
2023/10/21 06:31:08;;;;;;;1.17;0.93;;;13.00;86.70;;;12.71;81.78;96084.44;4958995;28;20475;-73
2023/10/21 06:33:35;;;;;;;1.00;0.60;;;13.00;86.90;;;12.79;81.50;96083.06;4959868;28;20445;-73
2023/10/21 06:36:03;;;;;;;1.13;0.67;;;13.10;86.80;;;12.95;80.73;96090.03;4959246;28;20551;-75
2023/10/21 06:38:31;;;;;;;0.90;0.90;;;13.30;86.70;;;13.02;80.75;96095.97;4946068;28;20548;-74
2023/10/21 06:40:58;;;;;;;1.50;0.90;;;13.40;86.50;;;13.23;80.07;96098.56;4959086;28;20508;-75
2023/10/21 06:43:25;;;;;;;1.40;0.97;;;13.60;86.10;;;13.42;79.34;96106.88;4966022;28;21106;-75
2023/10/21 06:45:53;;;;;;;1.40;1.00;;;13.80;86.10;;;13.62;77.78;96115.22;4949000;28;20493;-76
2023/10/21 06:48:22;;;;;;;1.70;1.07;;;13.90;85.40;;;13.69;77.72;96118.41;4951567;28;20985;-73
2023/10/21 06:50:49;;;;;;;0.90;0.80;;;14.10;85.20;;;13.82;76.99;96119.69;4975875;28;20561;-75
2023/10/21 06:53:16;;;;;;;2.20;0.90;;;14.20;85.10;;;13.98;76.84;96121.19;4968678;28;20502;-75
2023/10/21 06:55:44;;;;;;;2.40;1.10;;;14.30;84.70;;;14.06;76.26;96114.34;4984518;28;20455;-74
2023/10/21 06:58:12;;;;;;;2.30;0.90;;;14.50;84.60;;;14.17;75.08;96120.47;4952154;28;20466;-78
2023/10/21 07:00:40;;;;;;;1.73;1.37;;;14.60;84.00;;;14.28;74.65;96123.91;4966018;28;20478;-72
2023/10/21 07:03:07;;;;;;;1.60;1.20;;;14.70;83.80;;;14.56;73.64;96132.34;4952279;28;20532;-73
2023/10/21 07:05:36;;;;;;;1.10;1.00;;;14.90;83.40;;;14.49;73.64;96131.88;4964128;28;20730;-74
2023/10/21 07:08:05;;;;;;;3.17;1.00;;;14.90;83.20;;;14.14;72.96;96085.75;4967100;28;20562;-72
2023/10/21 07:10:33;;;;;;;1.40;0.83;;;15.00;82.70;;;14.39;73.53;96146.34;4967410;28;20974;-73
2023/10/21 07:13:01;;;;;;;1.10;0.83;;;14.90;82.60;;;14.30;74.19;96148.88;4965459;28;20481;-72
2023/10/21 07:15:31;;;;;;;2.40;1.20;;;14.80;82.60;;;14.28;74.87;96156.50;4968019;28;20457;-75
2023/10/21 07:17:58;;;;;;;1.10;1.00;;;14.70;83.00;;;14.09;74.75;96159.91;4935596;28;20463;-72
2023/10/21 07:20:26;;;;;;;1.30;0.93;;;14.60;82.90;;;14.14;74.92;96170.72;4957886;28;20565;-71
2023/10/21 07:22:58;;;;;;;1.67;1.37;;;14.60;83.10;;;14.06;75.49;96182.22;4963523;28;20563;-72
2023/10/21 07:25:26;;;;;;;1.20;1.10;;;14.50;83.30;;;14.05;75.60;96185.19;4956752;28;20460;-71
2023/10/21 07:27:53;;;;;;;2.87;1.40;;;14.50;83.50;;;14.21;74.91;96180.47;4972722;28;20468;-76
2023/10/21 07:30:23;;;;;;;3.77;1.20;;;14.60;83.40;;;14.34;74.54;96187.97;4955349;28;20471;-75
2023/10/21 07:32:51;;;;;;;1.90;1.10;;;14.70;83.20;;;14.76;73.37;96196.59;4951826;28;20486;-74
2023/10/21 07:35:18;;;;;;;1.30;1.00;;;15.00;83.10;;;14.73;72.94;96189.00;4956327;28;20582;-75
2023/10/21 07:37:46;;;;;;;1.03;0.93;;;15.10;82.60;;;14.71;72.28;96194.72;4936654;28;20980;-75
2023/10/21 07:40:16;;;;;;;1.00;1.00;;;15.10;82.50;;;14.53;72.77;96168.25;4954882;28;20473;-75
2023/10/21 07:42:43;;;;;;;1.00;0.90;;;15.20;82.40;;;14.73;72.40;96205.31;4952442;28;20475;-75
2023/10/21 07:45:14;;;;;;;1.10;0.90;;;15.20;82.40;;;14.64;73.22;96213.25;4948973;28;20450;-74
2023/10/21 07:47:42;;;;;;;1.20;1.10;;;15.10;82.50;;;14.68;73.04;96222.44;4951843;28;20463;-74
2023/10/21 07:50:10;;;;;;;1.17;0.80;;;15.10;82.50;;;14.76;73.13;96214.78;4950707;28;20453;-73
2023/10/21 07:52:38;;;;;;;1.83;1.30;;;15.10;82.50;;;14.82;72.73;96219.91;4967740;28;20448;-76
2023/10/21 07:55:06;;;;;;;1.40;1.30;;;15.20;82.40;;;14.88;72.57;96231.53;4974662;28;20469;-76
2023/10/21 07:57:35;;;;;;;1.20;1.10;;;15.30;82.30;;;15.07;71.96;96231.63;4958584;28;20469;-74
2023/10/21 08:00:04;;;;;;;2.40;1.43;;;15.40;82.30;;;15.15;71.90;96238.34;4964217;28;20761;-82
2023/10/21 08:02:32;;;;;;;1.47;1.20;;;15.50;82.00;;;15.32;70.99;96242.50;4951676;28;20519;-70
2023/10/21 08:04:59;;;;;;;1.37;1.27;;;15.70;81.70;;;15.38;70.29;96253.03;4951444;28;20460;-73
2023/10/21 08:07:26;;;;;;;1.77;1.00;;;15.80;81.20;;;15.39;70.88;96241.06;4970648;28;20484;-71
2023/10/21 08:09:54;;;;;;;1.10;0.90;;;15.90;81.60;;;15.53;70.16;96248.53;4947696;28;20850;-73
2023/10/21 08:12:21;;;;;;;1.50;1.03;;;15.90;81.10;;;15.56;69.72;96247.94;4956759;28;20456;-75
2023/10/21 08:14:50;;;;;;;1.47;1.00;;;16.00;81.10;;;15.67;69.30;96264.94;4973266;28;20452;-74
2023/10/21 08:17:17;;;;;;;2.03;1.40;;;16.10;80.90;;;15.85;68.65;96272.34;4950436;28;20498;-75
2023/10/21 08:19:47;;;;;;;1.40;1.20;;;16.20;80.60;;;15.56;70.16;96262.38;4957512;28;20459;-75
2023/10/21 08:22:14;;;;;;;1.33;1.10;;;16.10;80.90;;;15.21;71.13;96286.13;4959800;28;20487;-74
2023/10/21 08:24:41;;;;;;;1.60;0.97;;;15.80;80.80;;;15.44;70.11;96278.28;4967192;28;20473;-75
2023/10/21 08:27:10;;;;;;;1.90;1.23;;;15.80;80.90;;;14.99;70.83;96235.78;4945745;28;20474;-73
2023/10/21 08:29:38;;;;;;;1.83;1.07;;;15.80;81.10;;;15.41;71.18;96278.88;4961332;28;20858;-76
2023/10/21 08:32:09;;;;;;;1.13;1.03;;;15.80;81.40;;;15.64;70.39;96292.75;4965141;28;20465;-79
2023/10/21 08:34:37;;;;;;;1.10;0.90;;;15.90;81.20;;;15.47;70.50;96287.75;4976765;28;20449;-76
2023/10/21 08:37:04;;;;;;;1.00;0.90;;;16.00;80.90;;;15.80;69.88;96294.19;4970586;28;20484;-82
2023/10/21 08:39:34;;;;;;;0.97;0.80;;;16.10;81.00;;;15.99;69.18;96298.88;4964888;28;20459;-78
2023/10/21 08:42:02;;;;;;;2.37;1.00;;;16.20;80.80;;;16.38;67.79;96302.44;4947272;28;20459;-79
2023/10/21 08:44:30;;;;;;;1.63;0.90;;;16.50;80.50;;;16.21;68.06;96306.47;4949231;28;20457;-77
2023/10/21 08:47:00;;;;;;;1.30;1.07;;;16.60;80.30;;;16.20;68.56;96296.69;4966923;28;20554;-82
2023/10/21 08:49:30;;;;;;;2.50;1.20;;;16.60;80.20;;;16.23;68.09;96307.00;4951839;28;20464;-81
2023/10/21 08:52:00;;;;;;;1.20;0.87;;;16.70;80.00;;;16.13;68.64;96321.56;4968099;28;20460;-79
2023/10/21 08:54:27;;;;;;;1.40;1.10;;;16.60;79.90;;;16.42;67.54;96306.19;4951759;28;20467;-80
2023/10/21 08:56:55;;;;;;;1.70;1.23;;;16.70;80.10;;;16.21;67.92;96311.13;4965873;28;20996;-80
2023/10/21 08:59:22;;;;;;;1.23;1.00;;;16.70;79.60;;;16.10;67.86;96302.28;4971883;28;20456;-79
2023/10/21 09:01:50;;;;;;;1.60;1.50;;;16.60;79.40;;;16.30;67.65;96320.25;4949581;28;20515;-79
2023/10/21 09:04:20;;;;;;;3.20;0.93;;;16.60;79.60;;;16.09;68.33;96319.75;4952060;28;20543;-77
2023/10/21 09:06:57;;;;;;;1.30;1.10;;;16.60;79.50;;;15.90;68.98;96320.50;4968625;28;20481;-79
2023/10/21 09:09:26;;;;;;;1.50;0.90;;;16.40;79.80;;;15.72;69.29;96319.34;4957514;28;20454;-80
2023/10/21 09:12:05;;;;;;;1.23;0.90;;;16.30;79.90;;;15.36;69.73;96260.69;4969136;28;20500;-81
2023/10/21 09:14:51;;;;;;;1.73;1.10;;;16.20;80.30;;;15.81;70.20;96323.03;4974906;28;20459;-81
2023/10/21 09:17:18;;;;;;;1.17;1.07;;;16.20;80.40;;;15.85;69.09;96326.00;4977009;28;20490;-80
2023/10/21 09:19:49;;;;;;;2.03;0.90;;;16.20;79.90;;;15.99;68.93;96320.66;4984121;28;20463;-81
2023/10/21 09:22:29;;;;;;;1.23;1.00;;;16.30;80.10;;;16.31;68.00;96330.06;4956507;28;20662;-78
2023/10/21 09:25:15;;;;;;;2.57;0.90;;;16.50;79.90;;;16.33;67.28;96336.03;5000154;28;20530;-85
2023/10/21 09:27:44;;;;;;;2.50;1.03;;;16.70;79.40;;;16.38;67.74;96337.88;4970990;28;20454;-85
2023/10/21 09:30:16;;;;;;;0.90;0.80;;;16.80;79.40;;;16.39;67.35;96325.88;4974344;28;20458;-84
2023/10/21 09:32:46;;;;;;;1.00;1.00;;;16.90;79.40;;;16.68;66.50;96344.78;4968748;28;20462;-81
2023/10/21 09:35:21;;;;;;;1.20;0.77;;;17.00;79.00;;;16.78;65.95;96349.25;4976038;28;20488;-73
2023/10/21 09:37:51;;;;;;;2.30;0.90;;;17.20;78.60;;;16.64;66.11;96327.41;4966122;28;20475;-86
2023/10/21 09:40:19;;;;;;;1.53;0.90;;;17.20;78.60;;;16.98;64.83;96350.03;4969828;28;20554;-76
2023/10/21 09:42:50;;;;;;;1.50;1.33;;;17.30;78.30;;;17.05;65.21;96360.59;4963380;28;20468;-72
2023/10/21 09:45:18;;;;;;;1.47;0.90;;;17.40;78.40;;;17.37;63.86;96356.25;4962327;28;20538;-72
2023/10/21 09:47:46;;;;;;;4.50;1.10;;;17.70;77.90;;;17.73;62.69;96363.78;4968372;28;20458;-74
2023/10/21 09:50:15;;;;;;;1.20;1.00;;;18.00;77.50;;;17.93;62.38;96381.69;4969878;28;20480;-74
2023/10/21 09:52:56;;;;;;;0.90;0.83;;;18.20;77.10;;;17.63;61.10;96282.06;4969283;28;20471;-71
2023/10/21 09:55:25;;;;;;;1.17;1.07;;;18.50;76.60;;;18.06;61.52;96347.31;4964714;28;20465;-72
2023/10/21 09:57:55;;;;;;;0.87;0.53;;;18.60;76.40;;;18.09;59.79;96384.94;4964168;28;21006;-72
2023/10/21 10:00:24;;;;;;;1.67;0.50;;;18.60;74.70;;;17.96;59.39;96380.25;4963759;28;21027;-72
2023/10/21 10:02:53;;;;;;;0.90;0.50;;;18.40;74.00;;;17.77;60.07;96381.19;4970695;28;20551;-70
2023/10/21 10:05:22;;;;;;;0.50;0.50;;;18.30;74.00;;;17.81;59.88;96398.56;4970652;28;20447;-72
2023/10/21 10:07:50;;;;;;;0.70;0.40;;;18.30;73.90;;;17.81;59.46;96395.03;4952253;28;20949;-73
2023/10/21 10:10:23;;;;;;;1.37;0.60;;;18.30;73.70;;;18.09;58.65;96392.34;4977337;28;20460;-73
2023/10/21 10:12:55;;;;;;;0.53;0.53;;;18.40;73.30;;;18.36;57.46;96402.44;4971059;28;20469;-72
2023/10/21 10:15:37;;;;;;;0.40;0.37;;;18.70;72.60;;;18.46;57.25;96397.88;4962463;28;20467;-71
2023/10/21 10:18:06;;;;;;;2.03;0.60;;;18.80;72.30;;;18.41;57.91;96401.53;4954185;28;21040;-71
2023/10/21 10:20:34;;;;;;;1.20;0.70;;;18.90;72.60;;;18.45;58.46;96393.53;4953806;28;20837;-72
2023/10/21 10:23:04;;;;;;;0.50;0.40;;;18.80;72.70;;;18.72;57.14;96400.03;4971547;28;21025;-71
2023/10/21 10:25:35;;;;;;;0.53;0.53;;;19.00;72.30;;;18.54;57.65;96413.56;4953860;28;20481;-72
2023/10/21 10:28:07;;;;;;;1.53;0.50;;;18.90;71.80;;;17.62;59.04;96379.56;4946577;28;20873;-72
2023/10/21 10:30:36;;;;;;;1.90;0.80;;;18.40;72.00;;;17.78;59.90;96404.63;4964307;28;20568;-73
2023/10/21 10:33:07;;;;;;;0.60;0.60;;;18.40;72.60;;;18.41;58.30;96407.00;4956503;28;20465;-71
2023/10/21 10:35:39;;;;;;;1.13;0.60;;;18.60;72.50;;;18.66;57.91;96404.84;4970122;28;20461;-71
2023/10/21 10:38:24;;;;;;;1.10;0.50;;;18.80;72.60;;;19.38;54.90;96402.38;4968828;28;20524;-72
2023/10/21 10:40:55;;;;;;;1.13;0.70;;;19.30;71.20;;;18.93;57.78;96395.72;4977421;28;20551;-72
2023/10/21 10:43:23;;;;;;;3.43;0.73;;;19.40;71.90;;;19.12;56.16;96389.31;4971030;28;20484;-73
2023/10/21 10:45:51;;;;;;;1.03;0.80;;;19.50;71.40;;;19.28;54.86;96399.88;4954579;28;20468;-73
2023/10/21 10:48:18;;;;;;;1.43;0.60;;;19.60;70.30;;;19.34;54.93;96404.13;4969115;28;20547;-72
2023/10/21 10:50:47;;;;;;;0.67;0.47;;;19.60;70.30;;;19.19;54.67;96408.84;4968702;28;20529;-72
2023/10/21 10:53:16;;;;;;;1.00;0.93;;;19.60;69.60;;;19.10;56.12;96402.50;4940587;28;20457;-71
2023/10/21 10:55:49;;;;;;;1.57;0.47;;;19.40;70.10;;;18.87;55.08;96404.38;4960242;28;20465;-73
2023/10/21 10:58:19;;;;;;;1.13;0.70;;;19.40;69.20;;;18.95;55.81;96412.66;4965890;28;20485;-72
2023/10/21 11:00:46;;;;;;;1.53;0.70;;;19.30;69.70;;;19.04;55.72;96406.47;4961736;28;20468;-72
2023/10/21 11:03:24;;;;;;;1.43;0.63;;;19.40;69.80;;;18.69;55.99;96404.22;4961773;28;20471;-71
2023/10/21 11:05:53;;;;;;;0.70;0.60;;;19.30;69.30;;;18.76;56.05;96406.53;4953117;28;20517;-72
2023/10/21 11:08:21;;;;;;;0.60;0.50;;;19.10;69.60;;;18.62;56.14;96415.56;4949368;28;20867;-71
2023/10/21 11:10:53;;;;;;;0.87;0.60;;;19.10;69.50;;;18.47;57.60;96411.25;4967090;28;20796;-72
2023/10/21 11:13:21;;;;;;;3.07;0.67;;;18.80;70.20;;;18.78;56.65;96405.09;4963280;28;20445;-72
2023/10/21 11:15:54;;;;;;;0.87;0.60;;;19.00;70.20;;;18.91;56.48;96417.13;4947021;28;20453;-73
2023/10/21 11:18:21;;;;;;;1.07;0.90;;;19.20;70.00;;;19.11;55.47;96417.78;4950234;28;20458;-72
2023/10/21 11:20:49;;;;;;;1.83;0.70;;;19.40;69.40;;;18.56;56.80;96414.06;4954556;28;20464;-71
2023/10/21 11:23:18;;;;;;;0.80;0.80;;;19.10;69.50;;;18.91;55.83;96419.03;4962314;28;20558;-71
2023/10/21 11:25:48;;;;;;;1.20;1.00;;;19.20;69.60;;;18.55;57.08;96416.00;4969355;28;20510;-72
2023/10/21 11:28:16;;;;;;;0.70;0.60;;;19.10;69.70;;;18.43;57.47;96421.19;4960693;28;20466;-72
2023/10/21 11:30:45;;;;;;;2.20;0.60;;;18.80;69.80;;;18.07;58.28;96410.97;4950639;28;20465;-71
2023/10/21 11:33:13;;;;;;;1.50;0.63;;;18.70;70.00;;;18.19;57.94;96424.94;4968808;28;20456;-73
2023/10/21 11:35:43;;;;;;;1.43;0.90;;;18.50;70.00;;;18.36;57.93;96429.00;4943117;28;20457;-71
2023/10/21 11:38:13;;;;;;;0.70;0.53;;;18.60;70.50;;;18.57;57.21;96426.59;4958237;28;20456;-71
2023/10/21 11:40:41;;;;;;;0.80;0.80;;;18.80;70.10;;;18.52;57.59;96426.72;4965218;28;20508;-71
2023/10/21 11:43:12;;;;;;;2.40;0.80;;;18.90;70.10;;;18.30;57.67;96419.25;4966676;28;20464;-72
2023/10/21 11:45:40;;;;;;;1.93;1.70;;;18.80;69.70;;;18.30;58.32;96432.94;4964042;28;20454;-70
2023/10/21 11:48:10;;;;;;;0.80;0.63;;;18.70;70.40;;;18.26;58.24;96430.81;4961949;28;20453;-73
2023/10/21 11:50:42;;;;;;;0.73;0.73;;;18.60;70.20;;;18.03;59.29;96429.06;4949046;28;20457;-72
2023/10/21 11:53:12;;;;;;;3.20;0.90;;;18.50;70.50;;;18.01;59.05;96428.53;4967077;28;20545;-72
2023/10/21 12:15:20;;;;;;;0.90;0.63;;;18.70;71.20;;;18.78;57.56;96468.00;4934169;28;20456;-72
2023/10/21 12:18:13;;;;;;;1.03;0.87;;;18.90;70.70;;;19.11;57.07;96467.06;4949907;28;20457;-72
2023/10/21 12:24:05;;;;;;;2.27;1.10;;;19.40;70.30;;;18.97;56.82;96470.59;4962537;28;20465;-73
2023/10/21 12:26:51;;;;;;;1.60;0.77;;;19.30;70.00;;;18.48;58.69;96458.53;4955617;28;20480;-73
2023/10/21 12:35:15;;;;;;;1.23;1.03;;;18.80;71.40;;;18.01;61.00;96464.88;4947312;28;20815;-71
2023/10/21 12:40:35;;;;;;;1.70;0.97;;;18.70;72.00;;;18.06;60.74;96470.28;4950078;28;20456;-72
2023/10/21 12:43:23;;;;;;;1.37;1.00;;;18.50;71.50;;;18.12;60.27;96463.63;4962353;28;20566;-72
2023/10/21 12:45:54;;;;;;;1.37;0.87;;;18.60;71.50;;;18.11;60.48;96467.44;4954657;28;20450;-72
2023/10/21 12:48:21;;;;;;;2.67;0.90;;;18.60;71.70;;;18.33;60.13;96468.66;4964938;28;20460;-72
2023/10/21 12:50:50;;;;;;;1.20;1.00;;;18.60;71.80;;;17.86;61.12;96421.47;4970581;28;20651;-73
2023/10/21 12:53:19;;;;;;;1.70;1.10;;;18.60;72.00;;;17.86;62.18;96462.44;4971253;28;20532;-73
2023/10/21 12:55:47;;;;;;;1.73;1.00;;;18.40;72.40;;;17.79;62.45;96421.84;4958710;28;20968;-71
2023/10/21 12:58:15;;;;;;;1.00;0.90;;;18.30;72.80;;;17.64;62.03;96420.19;4942843;28;20520;-72
2023/10/21 13:00:44;;;;;;;0.97;0.60;;;18.30;72.80;;;17.45;63.09;96472.94;4950428;28;20525;-72
2023/10/21 13:03:12;;;;;;;1.30;1.20;;;18.00;72.60;;;17.25;63.38;96466.69;4967277;28;20661;-72
2023/10/21 13:05:39;;;;;;;2.37;0.77;;;17.80;72.80;;;17.20;63.83;96483.13;4964110;28;20461;-72